Huvudsida
METAR-TAF:

METAR-TAF

Flygplatser :

Ivalos flygplats

Ivalo, Finland

latitud: 68-37N, longitud: 027-25E, höjd: 147 m

Aktuellt väderrapport

Denna rapport gjordes för 9 minuter sedan, klockan 18:50 UTC
Vind 5 kt från sydväst
Temperatur 0°C
Fuktighet 86%
Tryck 1007 hPa
Sikt 10 km eller mer
Brutna moln på en höjd av 4300 ft

METAR: EFIV 201850Z AUTO 23005KT 9999 BKN043 00/M02 Q1007

Tid: 21:59 (18:59 UTC)

Väderprognos

Denna rapport gjordes för 7 timmar och 34 minuter sedan, klockan 11:25 UTC
Prognos gäller från 20 kl. 12 UTC till 20 kl. 17 UTC
Vind 10 kt från nordväst
Sikt 10 km eller mer
Brutna moln på en höjd av 3000 ft
Temporärt
från 20 kl. 12 UTC till 20 kl. 15 UTC
Få moln på en höjd av 4000 ft, Högtornande cumulus.

TAF: EFIV 201125Z 2012/2017 31010KT 9999 BKN030 TEMPO 2012/2015 FEW040TCU

Aktuella väderrapporter och prognoser från 4000 flygplatser (METAR- och TAF-rapporter).

De tillgängliga stationerna syns som gula och röda prickar på kartan.

För musen över prickarna för att se namnen på stationerna.

Klicka sedan för att få väderrapporter och prognoser.

För att ändra kartan: Klicka på de gröna knapparna med ett svart kors på för att zooma in; den gröna knappen med ett streck på för att zooma ut; eller på de gröna pilarna för angränsande kartor.


METAR-TAF: